sensor_id;sensor_type;location;lat;lon;timestamp;P1;durP1;ratioP1;P2;durP2;ratioP2
37383;SDS011;23258;49.718;11.082;2023-05-21T00:02:07;8.68;;;6.13;;
37383;SDS011;23258;49.718;11.082;2023-05-21T00:04:40;6.13;;;5.53;;
37383;SDS011;23258;49.718;11.082;2023-05-21T00:07:10;6.63;;;6.03;;
37383;SDS011;23258;49.718;11.082;2023-05-21T00:09:41;6.95;;;5.68;;
37383;SDS011;23258;49.718;11.082;2023-05-21T00:12:10;11.65;;;5.57;;
37383;SDS011;23258;49.718;11.082;2023-05-21T00:14:40;6.75;;;6.10;;
37383;SDS011;23258;49.718;11.082;2023-05-21T00:17:10;8.02;;;6.03;;
37383;SDS011;23258;49.718;11.082;2023-05-21T00:19:42;7.00;;;6.30;;
37383;SDS011;23258;49.718;11.082;2023-05-21T00:22:12;6.68;;;5.80;;
37383;SDS011;23258;49.718;11.082;2023-05-21T00:24:42;5.45;;;5.05;;
37383;SDS011;23258;49.718;11.082;2023-05-21T00:27:12;6.05;;;5.55;;
37383;SDS011;23258;49.718;11.082;2023-05-21T00:29:42;7.35;;;5.97;;
37383;SDS011;23258;49.718;11.082;2023-05-21T00:32:12;5.70;;;5.20;;
37383;SDS011;23258;49.718;11.082;2023-05-21T00:34:44;9.05;;;6.28;;
37383;SDS011;23258;49.718;11.082;2023-05-21T00:37:14;7.38;;;6.18;;
37383;SDS011;23258;49.718;11.082;2023-05-21T00:39:44;8.75;;;6.13;;
37383;SDS011;23258;49.718;11.082;2023-05-21T00:42:13;6.82;;;5.95;;
37383;SDS011;23258;49.718;11.082;2023-05-21T00:44:43;7.20;;;5.88;;
37383;SDS011;23258;49.718;11.082;2023-05-21T00:47:13;7.10;;;6.13;;
37383;SDS011;23258;49.718;11.082;2023-05-21T00:49:46;6.47;;;5.57;;
37383;SDS011;23258;49.718;11.082;2023-05-21T00:52:17;7.90;;;5.65;;
37383;SDS011;23258;49.718;11.082;2023-05-21T00:54:48;7.55;;;6.00;;
37383;SDS011;23258;49.718;11.082;2023-05-21T00:57:19;8.10;;;6.38;;
37383;SDS011;23258;49.718;11.082;2023-05-21T00:59:51;8.57;;;6.43;;
37383;SDS011;23258;49.718;11.082;2023-05-21T01:02:21;6.43;;;5.63;;
37383;SDS011;23258;49.718;11.082;2023-05-21T01:04:55;8.73;;;5.78;;
37383;SDS011;23258;49.718;11.082;2023-05-21T01:07:26;7.50;;;6.10;;
37383;SDS011;23258;49.718;11.082;2023-05-21T01:09:55;5.95;;;5.45;;
37383;SDS011;23258;49.718;11.082;2023-05-21T01:12:25;8.00;;;6.05;;
37383;SDS011;23258;49.718;11.082;2023-05-21T01:14:55;6.82;;;6.13;;
37383;SDS011;23258;49.718;11.082;2023-05-21T01:17:26;7.20;;;6.35;;
37383;SDS011;23258;49.718;11.082;2023-05-21T01:19:58;6.47;;;5.88;;
37383;SDS011;23258;49.718;11.082;2023-05-21T01:22:32;6.75;;;6.15;;
37383;SDS011;23258;49.718;11.082;2023-05-21T01:25:08;6.78;;;6.10;;
37383;SDS011;23258;49.718;11.082;2023-05-21T01:27:38;7.57;;;6.88;;
37383;SDS011;23258;49.718;11.082;2023-05-21T01:30:09;8.43;;;6.32;;
37383;SDS011;23258;49.718;11.082;2023-05-21T01:32:41;8.32;;;6.38;;
37383;SDS011;23258;49.718;11.082;2023-05-21T01:35:12;8.10;;;6.55;;
37383;SDS011;23258;49.718;11.082;2023-05-21T01:37:43;8.05;;;6.18;;
37383;SDS011;23258;49.718;11.082;2023-05-21T01:40:19;7.40;;;6.45;;
37383;SDS011;23258;49.718;11.082;2023-05-21T01:42:50;9.43;;;6.43;;
37383;SDS011;23258;49.718;11.082;2023-05-21T01:45:21;7.18;;;6.47;;
37383;SDS011;23258;49.718;11.082;2023-05-21T01:47:51;7.35;;;6.03;;
37383;SDS011;23258;49.718;11.082;2023-05-21T01:52:59;6.90;;;6.20;;
37383;SDS011;23258;49.718;11.082;2023-05-21T01:55:32;10.82;;;6.30;;
37383;SDS011;23258;49.718;11.082;2023-05-21T01:58:05;7.00;;;6.40;;
37383;SDS011;23258;49.718;11.082;2023-05-21T02:00:35;6.95;;;6.25;;
37383;SDS011;23258;49.718;11.082;2023-05-21T02:03:05;7.68;;;6.60;;
37383;SDS011;23258;49.718;11.082;2023-05-21T02:05:35;6.72;;;5.97;;
37383;SDS011;23258;49.718;11.082;2023-05-21T02:08:05;6.25;;;5.63;;
37383;SDS011;23258;49.718;11.082;2023-05-21T02:10:39;8.95;;;6.80;;
37383;SDS011;23258;49.718;11.082;2023-05-21T02:13:09;7.60;;;6.78;;
37383;SDS011;23258;49.718;11.082;2023-05-21T02:15:39;8.13;;;6.97;;
37383;SDS011;23258;49.718;11.082;2023-05-21T02:18:08;6.70;;;6.10;;
37383;SDS011;23258;49.718;11.082;2023-05-21T02:20:42;7.22;;;6.55;;
37383;SDS011;23258;49.718;11.082;2023-05-21T02:23:12;6.88;;;6.28;;
37383;SDS011;23258;49.718;11.082;2023-05-21T02:25:44;7.45;;;6.72;;
37383;SDS011;23258;49.718;11.082;2023-05-21T02:28:14;7.32;;;6.60;;
37383;SDS011;23258;49.718;11.082;2023-05-21T02:30:45;7.53;;;6.82;;
37383;SDS011;23258;49.718;11.082;2023-05-21T02:33:14;8.25;;;6.22;;
37383;SDS011;23258;49.718;11.082;2023-05-21T02:35:45;6.90;;;6.05;;
37383;SDS011;23258;49.718;11.082;2023-05-21T02:38:15;6.55;;;5.95;;
37383;SDS011;23258;49.718;11.082;2023-05-21T02:40:51;8.43;;;7.63;;
37383;SDS011;23258;49.718;11.082;2023-05-21T02:43:22;7.35;;;6.57;;
37383;SDS011;23258;49.718;11.082;2023-05-21T02:45:52;8.40;;;7.03;;
37383;SDS011;23258;49.718;11.082;2023-05-21T02:48:21;9.77;;;6.60;;
37383;SDS011;23258;49.718;11.082;2023-05-21T02:50:51;7.43;;;6.70;;
37383;SDS011;23258;49.718;11.082;2023-05-21T02:53:21;8.40;;;6.30;;
37383;SDS011;23258;49.718;11.082;2023-05-21T02:55:53;7.40;;;6.68;;
37383;SDS011;23258;49.718;11.082;2023-05-21T02:58:23;9.05;;;7.25;;
37383;SDS011;23258;49.718;11.082;2023-05-21T03:00:53;7.80;;;6.72;;
37383;SDS011;23258;49.718;11.082;2023-05-21T03:03:23;7.65;;;6.82;;
37383;SDS011;23258;49.718;11.082;2023-05-21T03:05:53;7.53;;;6.82;;
37383;SDS011;23258;49.718;11.082;2023-05-21T03:08:24;7.10;;;6.40;;
37383;SDS011;23258;49.718;11.082;2023-05-21T03:10:56;7.05;;;6.28;;
37383;SDS011;23258;49.718;11.082;2023-05-21T03:13:26;9.80;;;7.07;;
37383;SDS011;23258;49.718;11.082;2023-05-21T03:15:56;8.27;;;7.43;;
37383;SDS011;23258;49.718;11.082;2023-05-21T03:18:25;7.60;;;5.95;;
37383;SDS011;23258;49.718;11.082;2023-05-21T03:20:55;8.25;;;7.45;;
37383;SDS011;23258;49.718;11.082;2023-05-21T03:23:25;7.50;;;6.78;;
37383;SDS011;23258;49.718;11.082;2023-05-21T03:25:57;8.73;;;6.88;;
37383;SDS011;23258;49.718;11.082;2023-05-21T03:28:27;7.80;;;7.10;;
37383;SDS011;23258;49.718;11.082;2023-05-21T03:30:57;7.72;;;7.03;;
37383;SDS011;23258;49.718;11.082;2023-05-21T03:33:33;7.75;;;6.97;;
37383;SDS011;23258;49.718;11.082;2023-05-21T03:36:18;8.15;;;7.35;;
37383;SDS011;23258;49.718;11.082;2023-05-21T03:38:48;7.90;;;6.82;;
37383;SDS011;23258;49.718;11.082;2023-05-21T03:41:20;7.70;;;6.97;;
37383;SDS011;23258;49.718;11.082;2023-05-21T03:43:55;8.25;;;7.40;;
37383;SDS011;23258;49.718;11.082;2023-05-21T03:46:29;7.88;;;7.13;;
37383;SDS011;23258;49.718;11.082;2023-05-21T03:49:05;8.95;;;7.10;;
37383;SDS011;23258;49.718;11.082;2023-05-21T03:51:37;9.05;;;7.70;;
37383;SDS011;23258;49.718;11.082;2023-05-21T03:54:10;8.18;;;7.30;;
37383;SDS011;23258;49.718;11.082;2023-05-21T03:56:43;8.45;;;7.00;;
37383;SDS011;23258;49.718;11.082;2023-05-21T03:59:13;8.65;;;7.15;;
37383;SDS011;23258;49.718;11.082;2023-05-21T04:01:43;7.95;;;7.18;;
37383;SDS011;23258;49.718;11.082;2023-05-21T04:04:15;7.10;;;6.40;;
37383;SDS011;23258;49.718;11.082;2023-05-21T04:06:45;8.55;;;7.43;;
37383;SDS011;23258;49.718;11.082;2023-05-21T04:09:15;8.13;;;7.32;;
37383;SDS011;23258;49.718;11.082;2023-05-21T04:11:47;7.90;;;6.80;;
37383;SDS011;23258;49.718;11.082;2023-05-21T04:14:17;8.30;;;7.13;;
37383;SDS011;23258;49.718;11.082;2023-05-21T04:16:47;7.80;;;7.10;;
37383;SDS011;23258;49.718;11.082;2023-05-21T04:19:16;9.18;;;6.55;;
37383;SDS011;23258;49.718;11.082;2023-05-21T04:21:47;7.47;;;6.53;;
37383;SDS011;23258;49.718;11.082;2023-05-21T04:24:17;7.78;;;6.97;;
37383;SDS011;23258;49.718;11.082;2023-05-21T04:27:13;7.43;;;6.72;;
37383;SDS011;23258;49.718;11.082;2023-05-21T04:29:43;7.38;;;6.63;;
37383;SDS011;23258;49.718;11.082;2023-05-21T04:32:16;7.65;;;6.70;;
37383;SDS011;23258;49.718;11.082;2023-05-21T04:34:46;7.15;;;6.45;;
37383;SDS011;23258;49.718;11.082;2023-05-21T04:37:16;8.50;;;6.75;;
37383;SDS011;23258;49.718;11.082;2023-05-21T04:39:46;7.53;;;6.82;;
37383;SDS011;23258;49.718;11.082;2023-05-21T04:42:18;6.60;;;5.95;;
37383;SDS011;23258;49.718;11.082;2023-05-21T04:44:49;7.40;;;6.70;;
37383;SDS011;23258;49.718;11.082;2023-05-21T04:47:21;7.25;;;6.47;;
37383;SDS011;23258;49.718;11.082;2023-05-21T04:49:51;8.50;;;7.63;;
37383;SDS011;23258;49.718;11.082;2023-05-21T04:52:21;7.75;;;6.95;;
37383;SDS011;23258;49.718;11.082;2023-05-21T04:54:52;9.60;;;6.40;;
37383;SDS011;23258;49.718;11.082;2023-05-21T04:57:25;7.90;;;6.97;;
37383;SDS011;23258;49.718;11.082;2023-05-21T04:59:55;7.93;;;6.82;;
37383;SDS011;23258;49.718;11.082;2023-05-21T05:02:26;8.32;;;7.35;;
37383;SDS011;23258;49.718;11.082;2023-05-21T05:04:56;7.95;;;7.15;;
37383;SDS011;23258;49.718;11.082;2023-05-21T05:07:25;7.38;;;6.63;;
37383;SDS011;23258;49.718;11.082;2023-05-21T05:09:55;7.40;;;6.60;;
37383;SDS011;23258;49.718;11.082;2023-05-21T05:12:27;7.47;;;6.63;;
37383;SDS011;23258;49.718;11.082;2023-05-21T05:14:57;9.43;;;7.05;;
37383;SDS011;23258;49.718;11.082;2023-05-21T05:17:27;11.15;;;7.68;;
37383;SDS011;23258;49.718;11.082;2023-05-21T05:19:57;7.50;;;6.80;;
37383;SDS011;23258;49.718;11.082;2023-05-21T05:22:27;8.27;;;7.43;;
37383;SDS011;23258;49.718;11.082;2023-05-21T05:24:57;7.03;;;6.40;;
37383;SDS011;23258;49.718;11.082;2023-05-21T05:27:29;7.60;;;6.90;;
37383;SDS011;23258;49.718;11.082;2023-05-21T05:30:01;9.75;;;6.97;;
37383;SDS011;23258;49.718;11.082;2023-05-21T05:32:31;8.25;;;7.05;;
37383;SDS011;23258;49.718;11.082;2023-05-21T05:35:01;7.82;;;7.00;;
37383;SDS011;23258;49.718;11.082;2023-05-21T05:37:32;8.23;;;6.93;;
37383;SDS011;23258;49.718;11.082;2023-05-21T05:40:01;7.68;;;6.97;;
37383;SDS011;23258;49.718;11.082;2023-05-21T05:42:34;8.35;;;6.93;;
37383;SDS011;23258;49.718;11.082;2023-05-21T05:45:10;7.40;;;6.70;;
37383;SDS011;23258;49.718;11.082;2023-05-21T05:47:40;10.82;;;7.60;;
37383;SDS011;23258;49.718;11.082;2023-05-21T05:50:10;7.70;;;6.07;;
37383;SDS011;23258;49.718;11.082;2023-05-21T05:52:39;7.05;;;6.00;;
37383;SDS011;23258;49.718;11.082;2023-05-21T05:55:09;7.10;;;6.47;;
37383;SDS011;23258;49.718;11.082;2023-05-21T05:57:42;7.05;;;6.35;;
37383;SDS011;23258;49.718;11.082;2023-05-21T06:00:14;6.88;;;6.18;;
37383;SDS011;23258;49.718;11.082;2023-05-21T06:02:47;7.30;;;6.55;;
37383;SDS011;23258;49.718;11.082;2023-05-21T06:05:17;6.97;;;6.35;;
37383;SDS011;23258;49.718;11.082;2023-05-21T06:07:46;8.18;;;7.05;;
37383;SDS011;23258;49.718;11.082;2023-05-21T06:10:18;8.77;;;7.03;;
37383;SDS011;23258;49.718;11.082;2023-05-21T06:12:51;7.47;;;6.78;;
37383;SDS011;23258;49.718;11.082;2023-05-21T06:15:21;6.53;;;5.90;;
37383;SDS011;23258;49.718;11.082;2023-05-21T06:17:51;7.13;;;6.43;;
37383;SDS011;23258;49.718;11.082;2023-05-21T06:20:20;8.20;;;7.25;;
37383;SDS011;23258;49.718;11.082;2023-05-21T06:22:50;6.60;;;5.93;;
37383;SDS011;23258;49.718;11.082;2023-05-21T06:25:20;6.85;;;6.25;;
37383;SDS011;23258;49.718;11.082;2023-05-21T06:27:54;7.18;;;5.88;;
37383;SDS011;23258;49.718;11.082;2023-05-21T06:30:26;7.55;;;6.80;;
37383;SDS011;23258;49.718;11.082;2023-05-21T06:32:57;7.85;;;6.15;;
37383;SDS011;23258;49.718;11.082;2023-05-21T06:35:27;7.10;;;5.70;;
37383;SDS011;23258;49.718;11.082;2023-05-21T06:37:58;8.43;;;5.70;;
37383;SDS011;23258;49.718;11.082;2023-05-21T06:40:28;7.22;;;6.53;;
37383;SDS011;23258;49.718;11.082;2023-05-21T06:43:00;6.10;;;5.60;;
37383;SDS011;23258;49.718;11.082;2023-05-21T06:45:49;6.47;;;5.88;;
37383;SDS011;23258;49.718;11.082;2023-05-21T06:48:31;6.68;;;6.00;;
37383;SDS011;23258;49.718;11.082;2023-05-21T06:51:02;7.90;;;6.25;;
37383;SDS011;23258;49.718;11.082;2023-05-21T06:53:31;7.43;;;6.45;;
37383;SDS011;23258;49.718;11.082;2023-05-21T06:56:01;6.07;;;5.57;;
37383;SDS011;23258;49.718;11.082;2023-05-21T06:58:39;6.85;;;6.05;;
37383;SDS011;23258;49.718;11.082;2023-05-21T07:01:09;6.30;;;5.75;;
37383;SDS011;23258;49.718;11.082;2023-05-21T07:03:40;7.25;;;6.55;;
37383;SDS011;23258;49.718;11.082;2023-05-21T07:06:09;6.93;;;6.32;;
37383;SDS011;23258;49.718;11.082;2023-05-21T07:08:39;8.88;;;6.57;;
37383;SDS011;23258;49.718;11.082;2023-05-21T07:11:09;6.22;;;5.72;;
37383;SDS011;23258;49.718;11.082;2023-05-21T07:13:41;6.30;;;5.70;;
37383;SDS011;23258;49.718;11.082;2023-05-21T07:16:11;7.07;;;6.07;;
37383;SDS011;23258;49.718;11.082;2023-05-21T07:18:42;5.82;;;5.32;;
37383;SDS011;23258;49.718;11.082;2023-05-21T07:21:12;7.55;;;6.38;;
37383;SDS011;23258;49.718;11.082;2023-05-21T07:23:42;6.43;;;5.82;;
37383;SDS011;23258;49.718;11.082;2023-05-21T07:26:12;5.93;;;5.32;;
37383;SDS011;23258;49.718;11.082;2023-05-21T07:28:44;6.65;;;5.70;;
37383;SDS011;23258;49.718;11.082;2023-05-21T07:31:14;6.60;;;6.00;;
37383;SDS011;23258;49.718;11.082;2023-05-21T07:33:46;6.72;;;6.03;;
37383;SDS011;23258;49.718;11.082;2023-05-21T07:36:19;6.53;;;5.93;;
37383;SDS011;23258;49.718;11.082;2023-05-21T07:38:49;5.97;;;5.38;;
37383;SDS011;23258;49.718;11.082;2023-05-21T07:41:19;8.85;;;5.70;;
37383;SDS011;23258;49.718;11.082;2023-05-21T07:43:52;7.10;;;6.25;;
37383;SDS011;23258;49.718;11.082;2023-05-21T07:46:22;6.32;;;5.45;;
37383;SDS011;23258;49.718;11.082;2023-05-21T07:48:54;7.07;;;6.38;;
37383;SDS011;23258;49.718;11.082;2023-05-21T07:51:24;6.93;;;6.22;;
37383;SDS011;23258;49.718;11.082;2023-05-21T07:53:54;6.43;;;5.75;;
37383;SDS011;23258;49.718;11.082;2023-05-21T07:56:30;10.20;;;6.20;;
37383;SDS011;23258;49.718;11.082;2023-05-21T07:59:03;6.90;;;6.15;;
37383;SDS011;23258;49.718;11.082;2023-05-21T08:01:34;8.40;;;6.10;;
37383;SDS011;23258;49.718;11.082;2023-05-21T08:04:06;6.28;;;5.68;;
37383;SDS011;23258;49.718;11.082;2023-05-21T08:06:36;9.27;;;6.82;;
37383;SDS011;23258;49.718;11.082;2023-05-21T08:09:06;6.50;;;5.63;;
37383;SDS011;23258;49.718;11.082;2023-05-21T08:11:36;8.55;;;5.95;;
37383;SDS011;23258;49.718;11.082;2023-05-21T08:14:08;6.47;;;5.85;;
37383;SDS011;23258;49.718;11.082;2023-05-21T08:16:38;9.95;;;6.15;;
37383;SDS011;23258;49.718;11.082;2023-05-21T08:19:08;6.15;;;5.55;;
37383;SDS011;23258;49.718;11.082;2023-05-21T08:21:38;5.88;;;5.38;;
37383;SDS011;23258;49.718;11.082;2023-05-21T08:24:09;6.80;;;6.10;;
37383;SDS011;23258;49.718;11.082;2023-05-21T08:26:39;6.03;;;5.53;;
37383;SDS011;23258;49.718;11.082;2023-05-21T08:29:13;6.95;;;6.25;;
37383;SDS011;23258;49.718;11.082;2023-05-21T08:31:43;7.78;;;6.45;;
37383;SDS011;23258;49.718;11.082;2023-05-21T08:34:13;6.50;;;5.90;;
37383;SDS011;23258;49.718;11.082;2023-05-21T08:36:52;7.57;;;6.63;;
37383;SDS011;23258;49.718;11.082;2023-05-21T08:39:44;6.78;;;6.18;;
37383;SDS011;23258;49.718;11.082;2023-05-21T08:42:16;6.55;;;5.65;;
37383;SDS011;23258;49.718;11.082;2023-05-21T08:45:06;6.75;;;6.15;;
37383;SDS011;23258;49.718;11.082;2023-05-21T08:47:36;9.00;;;6.07;;
37383;SDS011;23258;49.718;11.082;2023-05-21T08:50:08;6.53;;;5.93;;
37383;SDS011;23258;49.718;11.082;2023-05-21T08:52:39;6.15;;;5.57;;
37383;SDS011;23258;49.718;11.082;2023-05-21T08:55:09;7.18;;;6.07;;
37383;SDS011;23258;49.718;11.082;2023-05-21T08:57:41;6.35;;;5.78;;
37383;SDS011;23258;49.718;11.082;2023-05-21T09:00:17;6.80;;;5.28;;
37383;SDS011;23258;49.718;11.082;2023-05-21T09:02:50;6.15;;;5.57;;
37383;SDS011;23258;49.718;11.082;2023-05-21T09:05:21;6.07;;;5.45;;
37383;SDS011;23258;49.718;11.082;2023-05-21T09:07:53;6.68;;;6.07;;
37383;SDS011;23258;49.718;11.082;2023-05-21T09:10:45;6.25;;;5.65;;
37383;SDS011;23258;49.718;11.082;2023-05-21T09:13:16;6.53;;;5.93;;
37383;SDS011;23258;49.718;11.082;2023-05-21T09:15:50;5.65;;;5.15;;
37383;SDS011;23258;49.718;11.082;2023-05-21T09:18:22;6.32;;;5.18;;
37383;SDS011;23258;49.718;11.082;2023-05-21T09:21:21;5.90;;;5.30;;
37383;SDS011;23258;49.718;11.082;2023-05-21T09:23:54;7.03;;;6.32;;
37383;SDS011;23258;49.718;11.082;2023-05-21T09:26:24;6.35;;;5.70;;
37383;SDS011;23258;49.718;11.082;2023-05-21T09:28:59;5.95;;;5.35;;
37383;SDS011;23258;49.718;11.082;2023-05-21T09:31:31;7.60;;;6.32;;
37383;SDS011;23258;49.718;11.082;2023-05-21T09:34:02;5.45;;;4.95;;
37383;SDS011;23258;49.718;11.082;2023-05-21T09:36:35;6.28;;;5.68;;
37383;SDS011;23258;49.718;11.082;2023-05-21T09:39:05;7.03;;;5.90;;
37383;SDS011;23258;49.718;11.082;2023-05-21T09:41:37;6.63;;;5.18;;
37383;SDS011;23258;49.718;11.082;2023-05-21T09:44:10;6.30;;;5.70;;
37383;SDS011;23258;49.718;11.082;2023-05-21T09:46:42;6.90;;;6.18;;
37383;SDS011;23258;49.718;11.082;2023-05-21T09:49:21;7.00;;;5.80;;
37383;SDS011;23258;49.718;11.082;2023-05-21T09:51:55;6.38;;;5.78;;
37383;SDS011;23258;49.718;11.082;2023-05-21T09:54:29;6.28;;;5.68;;
37383;SDS011;23258;49.718;11.082;2023-05-21T09:56:59;5.93;;;5.22;;
37383;SDS011;23258;49.718;11.082;2023-05-21T09:59:35;6.25;;;5.65;;
37383;SDS011;23258;49.718;11.082;2023-05-21T10:02:18;6.13;;;5.53;;
37383;SDS011;23258;49.718;11.082;2023-05-21T10:04:48;7.32;;;5.95;;
37383;SDS011;23258;49.718;11.082;2023-05-21T10:07:20;5.90;;;5.40;;
37383;SDS011;23258;49.718;11.082;2023-05-21T10:09:52;6.15;;;5.30;;
37383;SDS011;23258;49.718;11.082;2023-05-21T10:12:23;6.07;;;5.22;;
37383;SDS011;23258;49.718;11.082;2023-05-21T10:14:53;6.78;;;5.68;;
37383;SDS011;23258;49.718;11.082;2023-05-21T10:17:29;5.95;;;5.40;;
37383;SDS011;23258;49.718;11.082;2023-05-21T10:19:59;6.50;;;5.82;;
37383;SDS011;23258;49.718;11.082;2023-05-21T10:22:30;5.57;;;5.03;;
37383;SDS011;23258;49.718;11.082;2023-05-21T10:25:00;6.57;;;4.97;;
37383;SDS011;23258;49.718;11.082;2023-05-21T10:27:31;5.85;;;5.25;;
37383;SDS011;23258;49.718;11.082;2023-05-21T10:30:02;5.47;;;5.00;;
37383;SDS011;23258;49.718;11.082;2023-05-21T10:32:35;5.90;;;5.38;;
37383;SDS011;23258;49.718;11.082;2023-05-21T10:35:06;6.50;;;5.20;;
37383;SDS011;23258;49.718;11.082;2023-05-21T10:37:37;8.65;;;5.60;;
37383;SDS011;23258;49.718;11.082;2023-05-21T10:40:08;5.50;;;5.00;;
37383;SDS011;23258;49.718;11.082;2023-05-21T10:42:46;6.38;;;5.78;;
37383;SDS011;23258;49.718;11.082;2023-05-21T10:45:21;5.50;;;5.00;;
37383;SDS011;23258;49.718;11.082;2023-05-21T10:47:59;5.88;;;5.28;;
37383;SDS011;23258;49.718;11.082;2023-05-21T10:56:04;6.50;;;5.90;;
37383;SDS011;23258;49.718;11.082;2023-05-21T10:58:53;5.95;;;5.38;;
37383;SDS011;23258;49.718;11.082;2023-05-21T11:01:27;5.95;;;5.45;;
37383;SDS011;23258;49.718;11.082;2023-05-21T11:04:02;4.90;;;4.50;;
37383;SDS011;23258;49.718;11.082;2023-05-21T11:06:32;5.65;;;5.07;;
37383;SDS011;23258;49.718;11.082;2023-05-21T11:09:09;5.25;;;4.82;;
37383;SDS011;23258;49.718;11.082;2023-05-21T11:11:41;4.93;;;4.53;;
37383;SDS011;23258;49.718;11.082;2023-05-21T11:16:57;5.20;;;4.72;;
37383;SDS011;23258;49.718;11.082;2023-05-21T11:19:39;5.38;;;4.82;;
37383;SDS011;23258;49.718;11.082;2023-05-21T11:22:18;5.05;;;4.53;;
37383;SDS011;23258;49.718;11.082;2023-05-21T11:24:49;5.05;;;4.65;;
37383;SDS011;23258;49.718;11.082;2023-05-21T11:27:31;4.97;;;4.47;;
37383;SDS011;23258;49.718;11.082;2023-05-21T11:30:02;4.90;;;4.50;;
37383;SDS011;23258;49.718;11.082;2023-05-21T11:32:35;4.38;;;3.97;;
37383;SDS011;23258;49.718;11.082;2023-05-21T11:35:08;5.03;;;4.63;;
37383;SDS011;23258;49.718;11.082;2023-05-21T11:37:42;5.60;;;5.05;;
37383;SDS011;23258;49.718;11.082;2023-05-21T11:40:16;6.50;;;4.63;;
37383;SDS011;23258;49.718;11.082;2023-05-21T11:42:49;5.22;;;4.72;;
37383;SDS011;23258;49.718;11.082;2023-05-21T11:45:20;4.80;;;4.40;;
37383;SDS011;23258;49.718;11.082;2023-05-21T11:47:50;6.22;;;4.93;;
37383;SDS011;23258;49.718;11.082;2023-05-21T11:50:23;3.83;;;3.53;;
37383;SDS011;23258;49.718;11.082;2023-05-21T11:52:53;5.72;;;4.90;;
37383;SDS011;23258;49.718;11.082;2023-05-21T11:55:22;5.18;;;4.68;;
37383;SDS011;23258;49.718;11.082;2023-05-21T11:57:53;4.45;;;4.00;;
37383;SDS011;23258;49.718;11.082;2023-05-21T12:00:22;5.00;;;4.50;;
37383;SDS011;23258;49.718;11.082;2023-05-21T12:02:53;5.70;;;4.95;;
37383;SDS011;23258;49.718;11.082;2023-05-21T12:05:27;5.30;;;4.78;;
37383;SDS011;23258;49.718;11.082;2023-05-21T12:07:57;6.10;;;5.13;;
37383;SDS011;23258;49.718;11.082;2023-05-21T12:10:26;4.68;;;4.32;;
37383;SDS011;23258;49.718;11.082;2023-05-21T12:12:56;4.72;;;4.32;;
37383;SDS011;23258;49.718;11.082;2023-05-21T12:15:25;4.70;;;4.30;;
37383;SDS011;23258;49.718;11.082;2023-05-21T12:17:55;5.13;;;4.57;;
37383;SDS011;23258;49.718;11.082;2023-05-21T12:20:28;5.00;;;4.50;;
37383;SDS011;23258;49.718;11.082;2023-05-21T12:22:57;5.22;;;4.72;;
37383;SDS011;23258;49.718;11.082;2023-05-21T12:25:27;4.85;;;4.35;;
37383;SDS011;23258;49.718;11.082;2023-05-21T12:27:57;5.13;;;4.70;;
37383;SDS011;23258;49.718;11.082;2023-05-21T12:30:27;4.68;;;4.20;;
37383;SDS011;23258;49.718;11.082;2023-05-21T12:32:57;6.55;;;4.13;;
37383;SDS011;23258;49.718;11.082;2023-05-21T12:35:32;4.63;;;4.22;;
37383;SDS011;23258;49.718;11.082;2023-05-21T12:38:02;4.63;;;4.22;;
37383;SDS011;23258;49.718;11.082;2023-05-21T12:40:35;5.03;;;4.53;;
37383;SDS011;23258;49.718;11.082;2023-05-21T12:43:06;5.28;;;4.22;;
37383;SDS011;23258;49.718;11.082;2023-05-21T12:45:36;4.60;;;4.22;;
37383;SDS011;23258;49.718;11.082;2023-05-21T12:48:10;4.72;;;4.32;;
37383;SDS011;23258;49.718;11.082;2023-05-21T12:50:42;4.68;;;4.28;;
37383;SDS011;23258;49.718;11.082;2023-05-21T12:53:12;4.93;;;4.47;;
37383;SDS011;23258;49.718;11.082;2023-05-21T12:55:42;4.28;;;3.85;;
37383;SDS011;23258;49.718;11.082;2023-05-21T12:58:12;4.63;;;4.22;;
37383;SDS011;23258;49.718;11.082;2023-05-21T13:00:42;4.53;;;4.13;;
37383;SDS011;23258;49.718;11.082;2023-05-21T13:03:12;5.38;;;4.15;;
37383;SDS011;23258;49.718;11.082;2023-05-21T13:05:45;4.38;;;3.97;;
37383;SDS011;23258;49.718;11.082;2023-05-21T13:08:15;4.28;;;3.90;;
37383;SDS011;23258;49.718;11.082;2023-05-21T13:10:44;4.78;;;4.20;;
37383;SDS011;23258;49.718;11.082;2023-05-21T13:13:14;4.25;;;3.85;;
37383;SDS011;23258;49.718;11.082;2023-05-21T13:15:44;4.03;;;3.72;;
37383;SDS011;23258;49.718;11.082;2023-05-21T13:18:13;4.70;;;4.03;;
37383;SDS011;23258;49.718;11.082;2023-05-21T13:20:46;4.18;;;3.75;;
37383;SDS011;23258;49.718;11.082;2023-05-21T13:23:17;5.28;;;4.15;;
37383;SDS011;23258;49.718;11.082;2023-05-21T13:25:47;4.43;;;4.03;;
37383;SDS011;23258;49.718;11.082;2023-05-21T13:28:16;3.92;;;3.63;;
37383;SDS011;23258;49.718;11.082;2023-05-21T13:30:46;4.15;;;3.78;;
37383;SDS011;23258;49.718;11.082;2023-05-21T13:33:18;4.63;;;3.97;;
37383;SDS011;23258;49.718;11.082;2023-05-21T13:35:51;4.20;;;3.80;;
37383;SDS011;23258;49.718;11.082;2023-05-21T13:38:20;5.20;;;4.07;;
37383;SDS011;23258;49.718;11.082;2023-05-21T13:40:50;4.82;;;4.05;;
37383;SDS011;23258;49.718;11.082;2023-05-21T13:43:20;4.20;;;3.63;;
37383;SDS011;23258;49.718;11.082;2023-05-21T13:45:49;4.85;;;3.67;;
37383;SDS011;23258;49.718;11.082;2023-05-21T13:48:19;4.32;;;3.63;;
37383;SDS011;23258;49.718;11.082;2023-05-21T13:50:52;5.07;;;3.40;;
37383;SDS011;23258;49.718;11.082;2023-05-21T13:53:21;4.07;;;3.78;;
37383;SDS011;23258;49.718;11.082;2023-05-21T13:55:51;3.95;;;3.63;;
37383;SDS011;23258;49.718;11.082;2023-05-21T13:58:21;3.65;;;3.35;;
37383;SDS011;23258;49.718;11.082;2023-05-21T14:00:51;4.53;;;4.13;;
37383;SDS011;23258;49.718;11.082;2023-05-21T14:03:20;3.38;;;3.10;;
37383;SDS011;23258;49.718;11.082;2023-05-21T14:05:53;3.65;;;3.35;;
37383;SDS011;23258;49.718;11.082;2023-05-21T14:08:23;5.50;;;3.53;;
37383;SDS011;23258;49.718;11.082;2023-05-21T14:10:54;4.20;;;3.60;;
37383;SDS011;23258;49.718;11.082;2023-05-21T14:13:24;3.55;;;3.35;;
37383;SDS011;23258;49.718;11.082;2023-05-21T14:15:54;3.60;;;3.40;;
37383;SDS011;23258;49.718;11.082;2023-05-21T14:18:24;4.15;;;3.80;;
37383;SDS011;23258;49.718;11.082;2023-05-21T14:20:57;4.10;;;3.80;;
37383;SDS011;23258;49.718;11.082;2023-05-21T14:23:27;4.10;;;3.80;;
37383;SDS011;23258;49.718;11.082;2023-05-21T14:25:57;3.63;;;3.42;;
37383;SDS011;23258;49.718;11.082;2023-05-21T14:28:26;4.10;;;3.70;;
37383;SDS011;23258;49.718;11.082;2023-05-21T14:30:56;4.25;;;3.42;;
37383;SDS011;23258;49.718;11.082;2023-05-21T14:33:26;3.75;;;3.45;;
37383;SDS011;23258;49.718;11.082;2023-05-21T14:35:58;3.92;;;3.65;;
37383;SDS011;23258;49.718;11.082;2023-05-21T14:38:28;3.50;;;3.20;;
37383;SDS011;23258;49.718;11.082;2023-05-21T14:40:57;4.07;;;3.72;;
37383;SDS011;23258;49.718;11.082;2023-05-21T14:43:27;4.30;;;3.90;;
37383;SDS011;23258;49.718;11.082;2023-05-21T14:45:57;4.30;;;3.50;;
37383;SDS011;23258;49.718;11.082;2023-05-21T14:48:27;4.18;;;3.88;;
37383;SDS011;23258;49.718;11.082;2023-05-21T14:50:59;4.45;;;3.97;;
37383;SDS011;23258;49.718;11.082;2023-05-21T14:53:29;4.43;;;4.03;;
37383;SDS011;23258;49.718;11.082;2023-05-21T14:55:58;4.43;;;4.03;;
37383;SDS011;23258;49.718;11.082;2023-05-21T14:58:28;3.92;;;3.63;;
37383;SDS011;23258;49.718;11.082;2023-05-21T15:01:01;4.50;;;4.10;;
37383;SDS011;23258;49.718;11.082;2023-05-21T15:03:31;4.13;;;3.72;;
37383;SDS011;23258;49.718;11.082;2023-05-21T15:06:03;3.88;;;3.58;;
37383;SDS011;23258;49.718;11.082;2023-05-21T15:08:33;4.63;;;4.22;;
37383;SDS011;23258;49.718;11.082;2023-05-21T15:11:03;4.15;;;3.85;;